sensor_id;sensor_type;location;lat;lon;timestamp;temperature;humidity
13572;DHT22;6857;53.484;10.216;2024-01-15T00:01:22;2.10;99.90
13572;DHT22;6857;53.484;10.216;2024-01-15T00:03:48;2.10;99.90
13572;DHT22;6857;53.484;10.216;2024-01-15T00:06:13;2.10;99.90
13572;DHT22;6857;53.484;10.216;2024-01-15T00:08:39;2.10;99.90
13572;DHT22;6857;53.484;10.216;2024-01-15T00:11:04;2.20;99.90
13572;DHT22;6857;53.484;10.216;2024-01-15T00:13:30;2.20;99.90
13572;DHT22;6857;53.484;10.216;2024-01-15T00:15:55;2.20;99.90
13572;DHT22;6857;53.484;10.216;2024-01-15T00:18:21;2.20;99.90
13572;DHT22;6857;53.484;10.216;2024-01-15T00:20:47;2.20;99.90
13572;DHT22;6857;53.484;10.216;2024-01-15T00:23:12;2.30;99.90
13572;DHT22;6857;53.484;10.216;2024-01-15T00:25:38;2.30;99.90
13572;DHT22;6857;53.484;10.216;2024-01-15T00:28:03;2.30;99.90
13572;DHT22;6857;53.484;10.216;2024-01-15T00:30:29;2.20;99.90
13572;DHT22;6857;53.484;10.216;2024-01-15T00:32:54;2.00;99.90
13572;DHT22;6857;53.484;10.216;2024-01-15T00:35:20;1.90;99.90
13572;DHT22;6857;53.484;10.216;2024-01-15T00:37:45;1.90;99.90
13572;DHT22;6857;53.484;10.216;2024-01-15T00:40:11;1.90;99.90
13572;DHT22;6857;53.484;10.216;2024-01-15T00:42:37;1.90;99.90
13572;DHT22;6857;53.484;10.216;2024-01-15T00:45:03;1.90;99.90
13572;DHT22;6857;53.484;10.216;2024-01-15T00:47:30;1.90;99.90
13572;DHT22;6857;53.484;10.216;2024-01-15T00:49:56;2.00;99.90
13572;DHT22;6857;53.484;10.216;2024-01-15T00:52:21;2.00;99.90
13572;DHT22;6857;53.484;10.216;2024-01-15T00:54:47;2.00;99.90
13572;DHT22;6857;53.484;10.216;2024-01-15T00:57:12;2.00;99.90
13572;DHT22;6857;53.484;10.216;2024-01-15T00:59:38;2.00;99.90
13572;DHT22;6857;53.484;10.216;2024-01-15T01:02:03;2.00;99.90
13572;DHT22;6857;53.484;10.216;2024-01-15T01:04:29;1.90;99.90
13572;DHT22;6857;53.484;10.216;2024-01-15T01:06:54;1.90;99.90
13572;DHT22;6857;53.484;10.216;2024-01-15T01:09:20;1.90;99.90
13572;DHT22;6857;53.484;10.216;2024-01-15T01:11:45;2.00;99.90
13572;DHT22;6857;53.484;10.216;2024-01-15T01:14:11;2.00;99.90
13572;DHT22;6857;53.484;10.216;2024-01-15T01:16:37;2.00;99.90
13572;DHT22;6857;53.484;10.216;2024-01-15T01:19:05;2.00;99.90
13572;DHT22;6857;53.484;10.216;2024-01-15T01:21:31;2.00;99.90
13572;DHT22;6857;53.484;10.216;2024-01-15T01:23:57;2.10;99.90
13572;DHT22;6857;53.484;10.216;2024-01-15T01:26:22;2.00;99.90
13572;DHT22;6857;53.484;10.216;2024-01-15T01:28:48;2.10;99.90
13572;DHT22;6857;53.484;10.216;2024-01-15T01:31:13;2.10;99.90
13572;DHT22;6857;53.484;10.216;2024-01-15T01:33:39;2.10;99.90
13572;DHT22;6857;53.484;10.216;2024-01-15T01:36:10;2.20;99.90
13572;DHT22;6857;53.484;10.216;2024-01-15T01:38:36;2.20;99.90
13572;DHT22;6857;53.484;10.216;2024-01-15T01:41:02;2.20;99.90
13572;DHT22;6857;53.484;10.216;2024-01-15T01:43:28;2.20;99.90
13572;DHT22;6857;53.484;10.216;2024-01-15T01:45:56;2.20;99.90
13572;DHT22;6857;53.484;10.216;2024-01-15T01:48:22;2.30;99.90
13572;DHT22;6857;53.484;10.216;2024-01-15T01:50:50;2.30;99.90
13572;DHT22;6857;53.484;10.216;2024-01-15T01:53:16;2.30;99.90
13572;DHT22;6857;53.484;10.216;2024-01-15T01:55:41;2.30;99.90
13572;DHT22;6857;53.484;10.216;2024-01-15T01:58:07;2.30;99.90
13572;DHT22;6857;53.484;10.216;2024-01-15T02:00:34;2.30;99.90
13572;DHT22;6857;53.484;10.216;2024-01-15T02:03:00;2.30;99.90
13572;DHT22;6857;53.484;10.216;2024-01-15T02:05:29;2.30;99.90
13572;DHT22;6857;53.484;10.216;2024-01-15T02:07:55;2.30;99.90
13572;DHT22;6857;53.484;10.216;2024-01-15T02:10:21;2.30;99.90
13572;DHT22;6857;53.484;10.216;2024-01-15T02:12:46;2.30;99.90
13572;DHT22;6857;53.484;10.216;2024-01-15T02:15:14;2.30;99.90
13572;DHT22;6857;53.484;10.216;2024-01-15T02:17:59;2.30;99.90
13572;DHT22;6857;53.484;10.216;2024-01-15T02:20:25;2.30;99.90
13572;DHT22;6857;53.484;10.216;2024-01-15T02:22:51;2.30;99.90
13572;DHT22;6857;53.484;10.216;2024-01-15T02:25:17;2.30;99.90
13572;DHT22;6857;53.484;10.216;2024-01-15T02:27:44;2.40;99.90
13572;DHT22;6857;53.484;10.216;2024-01-15T02:30:12;2.30;99.90
13572;DHT22;6857;53.484;10.216;2024-01-15T02:32:38;2.10;99.90
13572;DHT22;6857;53.484;10.216;2024-01-15T02:35:04;2.20;99.90
13572;DHT22;6857;53.484;10.216;2024-01-15T02:37:29;2.10;99.90
13572;DHT22;6857;53.484;10.216;2024-01-15T02:39:55;2.10;99.90
13572;DHT22;6857;53.484;10.216;2024-01-15T02:42:20;2.10;99.90
13572;DHT22;6857;53.484;10.216;2024-01-15T02:44:46;2.10;99.90
13572;DHT22;6857;53.484;10.216;2024-01-15T02:47:11;2.10;99.90
13572;DHT22;6857;53.484;10.216;2024-01-15T02:49:37;2.20;99.90
13572;DHT22;6857;53.484;10.216;2024-01-15T02:52:03;2.20;99.90
13572;DHT22;6857;53.484;10.216;2024-01-15T02:54:28;2.20;99.90
13572;DHT22;6857;53.484;10.216;2024-01-15T02:56:54;2.30;99.90
13572;DHT22;6857;53.484;10.216;2024-01-15T02:59:19;2.30;99.90
13572;DHT22;6857;53.484;10.216;2024-01-15T03:01:45;2.30;99.90
13572;DHT22;6857;53.484;10.216;2024-01-15T03:04:10;2.30;99.90
13572;DHT22;6857;53.484;10.216;2024-01-15T03:06:36;2.40;99.90
13572;DHT22;6857;53.484;10.216;2024-01-15T03:09:01;2.40;99.90
13572;DHT22;6857;53.484;10.216;2024-01-15T03:11:29;2.40;99.90
13572;DHT22;6857;53.484;10.216;2024-01-15T03:13:54;2.40;99.90
13572;DHT22;6857;53.484;10.216;2024-01-15T03:16:20;2.40;99.90
13572;DHT22;6857;53.484;10.216;2024-01-15T03:18:46;2.40;99.90
13572;DHT22;6857;53.484;10.216;2024-01-15T03:21:11;2.40;99.90
13572;DHT22;6857;53.484;10.216;2024-01-15T03:23:37;2.40;99.90
13572;DHT22;6857;53.484;10.216;2024-01-15T03:26:02;2.30;99.90
13572;DHT22;6857;53.484;10.216;2024-01-15T03:28:28;2.30;99.90
13572;DHT22;6857;53.484;10.216;2024-01-15T03:30:55;2.30;99.90
13572;DHT22;6857;53.484;10.216;2024-01-15T03:33:21;2.30;99.90
13572;DHT22;6857;53.484;10.216;2024-01-15T03:35:48;2.20;99.90
13572;DHT22;6857;53.484;10.216;2024-01-15T03:38:13;2.30;99.90
13572;DHT22;6857;53.484;10.216;2024-01-15T03:40:39;2.20;99.90
13572;DHT22;6857;53.484;10.216;2024-01-15T03:43:04;2.10;99.90
13572;DHT22;6857;53.484;10.216;2024-01-15T03:45:30;2.10;99.90
13572;DHT22;6857;53.484;10.216;2024-01-15T03:47:55;2.10;99.90
13572;DHT22;6857;53.484;10.216;2024-01-15T03:50:21;2.10;99.90
13572;DHT22;6857;53.484;10.216;2024-01-15T03:52:46;2.10;99.90
13572;DHT22;6857;53.484;10.216;2024-01-15T03:55:12;2.20;99.90
13572;DHT22;6857;53.484;10.216;2024-01-15T03:57:37;2.10;99.90
13572;DHT22;6857;53.484;10.216;2024-01-15T04:00:03;2.20;99.90
13572;DHT22;6857;53.484;10.216;2024-01-15T04:02:29;2.10;99.90
13572;DHT22;6857;53.484;10.216;2024-01-15T04:04:54;2.20;99.90
13572;DHT22;6857;53.484;10.216;2024-01-15T04:07:20;2.10;99.90
13572;DHT22;6857;53.484;10.216;2024-01-15T04:09:45;2.20;99.90
13572;DHT22;6857;53.484;10.216;2024-01-15T04:12:11;2.20;99.90
13572;DHT22;6857;53.484;10.216;2024-01-15T04:14:36;2.30;99.90
13572;DHT22;6857;53.484;10.216;2024-01-15T04:17:02;2.30;99.90
13572;DHT22;6857;53.484;10.216;2024-01-15T04:19:27;2.30;99.90
13572;DHT22;6857;53.484;10.216;2024-01-15T04:21:53;2.30;99.90
13572;DHT22;6857;53.484;10.216;2024-01-15T04:24:18;2.30;99.90
13572;DHT22;6857;53.484;10.216;2024-01-15T04:26:45;2.30;99.90
13572;DHT22;6857;53.484;10.216;2024-01-15T04:29:10;2.30;99.90
13572;DHT22;6857;53.484;10.216;2024-01-15T04:31:36;2.30;99.90
13572;DHT22;6857;53.484;10.216;2024-01-15T04:34:01;2.30;99.90
13572;DHT22;6857;53.484;10.216;2024-01-15T04:38:59;2.30;99.90
13572;DHT22;6857;53.484;10.216;2024-01-15T04:41:25;2.30;99.90
13572;DHT22;6857;53.484;10.216;2024-01-15T04:43:51;2.30;99.90
13572;DHT22;6857;53.484;10.216;2024-01-15T04:46:16;2.30;99.90
13572;DHT22;6857;53.484;10.216;2024-01-15T04:48:42;2.30;99.90
13572;DHT22;6857;53.484;10.216;2024-01-15T04:51:09;2.30;99.90
13572;DHT22;6857;53.484;10.216;2024-01-15T04:53:34;2.30;99.90
13572;DHT22;6857;53.484;10.216;2024-01-15T04:56:00;2.30;99.90
13572;DHT22;6857;53.484;10.216;2024-01-15T04:58:26;2.30;99.90
13572;DHT22;6857;53.484;10.216;2024-01-15T05:00:52;2.30;99.90
13572;DHT22;6857;53.484;10.216;2024-01-15T05:03:18;2.30;99.90
13572;DHT22;6857;53.484;10.216;2024-01-15T05:05:43;2.30;99.90
13572;DHT22;6857;53.484;10.216;2024-01-15T05:08:09;2.30;99.90
13572;DHT22;6857;53.484;10.216;2024-01-15T05:10:35;2.30;99.90
13572;DHT22;6857;53.484;10.216;2024-01-15T05:13:00;2.30;99.90
13572;DHT22;6857;53.484;10.216;2024-01-15T05:15:26;2.30;99.90
13572;DHT22;6857;53.484;10.216;2024-01-15T05:17:51;2.30;99.90
13572;DHT22;6857;53.484;10.216;2024-01-15T05:20:17;2.30;99.90
13572;DHT22;6857;53.484;10.216;2024-01-15T05:22:42;2.30;99.90
13572;DHT22;6857;53.484;10.216;2024-01-15T05:25:08;2.30;99.90
13572;DHT22;6857;53.484;10.216;2024-01-15T05:27:33;2.30;99.90
13572;DHT22;6857;53.484;10.216;2024-01-15T05:29:59;2.30;99.90
13572;DHT22;6857;53.484;10.216;2024-01-15T05:32:24;2.30;99.90
13572;DHT22;6857;53.484;10.216;2024-01-15T05:34:50;2.30;99.90
13572;DHT22;6857;53.484;10.216;2024-01-15T05:37:15;2.30;99.90
13572;DHT22;6857;53.484;10.216;2024-01-15T05:39:41;2.30;99.90
13572;DHT22;6857;53.484;10.216;2024-01-15T05:42:06;2.30;99.90
13572;DHT22;6857;53.484;10.216;2024-01-15T05:44:32;2.40;99.90
13572;DHT22;6857;53.484;10.216;2024-01-15T05:46:57;2.40;99.90
13572;DHT22;6857;53.484;10.216;2024-01-15T05:49:23;2.50;99.90
13572;DHT22;6857;53.484;10.216;2024-01-15T05:51:49;2.50;99.90
13572;DHT22;6857;53.484;10.216;2024-01-15T05:54:14;2.40;99.90
13572;DHT22;6857;53.484;10.216;2024-01-15T05:56:40;2.40;99.90
13572;DHT22;6857;53.484;10.216;2024-01-15T05:59:06;2.40;99.90
13572;DHT22;6857;53.484;10.216;2024-01-15T06:01:31;2.50;99.90
13572;DHT22;6857;53.484;10.216;2024-01-15T06:03:57;2.60;99.90
13572;DHT22;6857;53.484;10.216;2024-01-15T06:06:22;2.50;99.90
13572;DHT22;6857;53.484;10.216;2024-01-15T06:08:48;2.60;99.90
13572;DHT22;6857;53.484;10.216;2024-01-15T06:11:13;2.60;99.90
13572;DHT22;6857;53.484;10.216;2024-01-15T06:13:39;2.60;99.90
13572;DHT22;6857;53.484;10.216;2024-01-15T06:16:13;2.50;99.90
13572;DHT22;6857;53.484;10.216;2024-01-15T06:18:38;2.60;99.90
13572;DHT22;6857;53.484;10.216;2024-01-15T06:21:05;2.60;99.90
13572;DHT22;6857;53.484;10.216;2024-01-15T06:23:30;2.60;99.90
13572;DHT22;6857;53.484;10.216;2024-01-15T06:25:56;2.60;99.90
13572;DHT22;6857;53.484;10.216;2024-01-15T06:28:21;2.70;99.90
13572;DHT22;6857;53.484;10.216;2024-01-15T06:30:47;2.70;99.90
13572;DHT22;6857;53.484;10.216;2024-01-15T06:33:12;2.60;99.90
13572;DHT22;6857;53.484;10.216;2024-01-15T06:35:38;2.60;99.90
13572;DHT22;6857;53.484;10.216;2024-01-15T06:38:03;2.70;99.90
13572;DHT22;6857;53.484;10.216;2024-01-15T06:40:29;2.70;99.90
13572;DHT22;6857;53.484;10.216;2024-01-15T06:42:54;2.70;99.90
13572;DHT22;6857;53.484;10.216;2024-01-15T06:45:20;2.70;99.90
13572;DHT22;6857;53.484;10.216;2024-01-15T06:47:45;2.70;99.90
13572;DHT22;6857;53.484;10.216;2024-01-15T06:50:11;2.70;99.90
13572;DHT22;6857;53.484;10.216;2024-01-15T06:52:36;2.80;99.90
13572;DHT22;6857;53.484;10.216;2024-01-15T06:55:02;2.70;99.90
13572;DHT22;6857;53.484;10.216;2024-01-15T06:57:28;2.70;99.90
13572;DHT22;6857;53.484;10.216;2024-01-15T06:59:53;2.80;99.90
13572;DHT22;6857;53.484;10.216;2024-01-15T07:02:19;2.80;99.90
13572;DHT22;6857;53.484;10.216;2024-01-15T07:04:44;2.70;99.90
13572;DHT22;6857;53.484;10.216;2024-01-15T07:07:10;2.70;99.90
13572;DHT22;6857;53.484;10.216;2024-01-15T07:09:35;2.70;99.90
13572;DHT22;6857;53.484;10.216;2024-01-15T07:12:01;2.70;99.90
13572;DHT22;6857;53.484;10.216;2024-01-15T07:14:26;2.70;99.90
13572;DHT22;6857;53.484;10.216;2024-01-15T07:16:52;2.60;99.90
13572;DHT22;6857;53.484;10.216;2024-01-15T07:19:17;2.60;99.90
13572;DHT22;6857;53.484;10.216;2024-01-15T07:21:43;2.60;99.90
13572;DHT22;6857;53.484;10.216;2024-01-15T07:24:09;2.60;99.90
13572;DHT22;6857;53.484;10.216;2024-01-15T07:26:35;2.60;99.90
13572;DHT22;6857;53.484;10.216;2024-01-15T07:29:01;2.60;99.90
13572;DHT22;6857;53.484;10.216;2024-01-15T07:31:27;2.60;99.90
13572;DHT22;6857;53.484;10.216;2024-01-15T07:33:52;2.60;99.90
13572;DHT22;6857;53.484;10.216;2024-01-15T07:36:18;2.60;99.90
13572;DHT22;6857;53.484;10.216;2024-01-15T07:38:43;2.70;99.90
13572;DHT22;6857;53.484;10.216;2024-01-15T07:41:08;2.60;99.90
13572;DHT22;6857;53.484;10.216;2024-01-15T07:43:34;2.60;99.90
13572;DHT22;6857;53.484;10.216;2024-01-15T07:45:59;2.70;99.90
13572;DHT22;6857;53.484;10.216;2024-01-15T07:48:25;2.70;99.90
13572;DHT22;6857;53.484;10.216;2024-01-15T07:50:51;2.70;99.90
13572;DHT22;6857;53.484;10.216;2024-01-15T07:53:16;2.70;99.90
13572;DHT22;6857;53.484;10.216;2024-01-15T07:55:42;2.80;99.90
13572;DHT22;6857;53.484;10.216;2024-01-15T07:58:07;2.80;99.90
13572;DHT22;6857;53.484;10.216;2024-01-15T08:00:33;2.80;99.90
13572;DHT22;6857;53.484;10.216;2024-01-15T08:02:59;2.80;99.90
13572;DHT22;6857;53.484;10.216;2024-01-15T08:05:24;2.80;99.90
13572;DHT22;6857;53.484;10.216;2024-01-15T08:07:50;2.80;99.90
13572;DHT22;6857;53.484;10.216;2024-01-15T08:10:15;2.80;99.90
13572;DHT22;6857;53.484;10.216;2024-01-15T08:12:41;2.80;99.90
13572;DHT22;6857;53.484;10.216;2024-01-15T08:15:06;2.80;99.90
13572;DHT22;6857;53.484;10.216;2024-01-15T08:17:32;2.80;99.90
13572;DHT22;6857;53.484;10.216;2024-01-15T08:19:58;2.80;99.90
13572;DHT22;6857;53.484;10.216;2024-01-15T08:22:24;2.80;99.90
13572;DHT22;6857;53.484;10.216;2024-01-15T08:24:50;2.80;99.90
13572;DHT22;6857;53.484;10.216;2024-01-15T08:27:15;2.80;99.90
13572;DHT22;6857;53.484;10.216;2024-01-15T08:29:41;2.80;99.90
13572;DHT22;6857;53.484;10.216;2024-01-15T08:32:06;2.80;99.90
13572;DHT22;6857;53.484;10.216;2024-01-15T08:34:32;2.90;99.90
13572;DHT22;6857;53.484;10.216;2024-01-15T08:36:58;2.90;99.90
13572;DHT22;6857;53.484;10.216;2024-01-15T08:39:23;2.90;99.90
13572;DHT22;6857;53.484;10.216;2024-01-15T08:41:49;2.90;99.90
13572;DHT22;6857;53.484;10.216;2024-01-15T08:44:14;2.90;99.90
13572;DHT22;6857;53.484;10.216;2024-01-15T08:46:40;2.90;99.90
13572;DHT22;6857;53.484;10.216;2024-01-15T08:49:05;2.90;99.90
13572;DHT22;6857;53.484;10.216;2024-01-15T08:51:31;2.90;99.90
13572;DHT22;6857;53.484;10.216;2024-01-15T08:53:57;2.90;99.90
13572;DHT22;6857;53.484;10.216;2024-01-15T08:56:23;2.80;99.90
13572;DHT22;6857;53.484;10.216;2024-01-15T08:58:48;2.90;99.90
13572;DHT22;6857;53.484;10.216;2024-01-15T09:01:14;2.80;99.90
13572;DHT22;6857;53.484;10.216;2024-01-15T09:03:40;2.80;99.90
13572;DHT22;6857;53.484;10.216;2024-01-15T09:06:08;2.80;99.90
13572;DHT22;6857;53.484;10.216;2024-01-15T09:08:35;2.80;99.90
13572;DHT22;6857;53.484;10.216;2024-01-15T09:11:00;2.80;99.90
13572;DHT22;6857;53.484;10.216;2024-01-15T09:13:28;2.80;99.90
13572;DHT22;6857;53.484;10.216;2024-01-15T09:15:53;2.80;99.90
13572;DHT22;6857;53.484;10.216;2024-01-15T09:18:19;2.80;99.90
13572;DHT22;6857;53.484;10.216;2024-01-15T09:20:44;2.80;99.90
13572;DHT22;6857;53.484;10.216;2024-01-15T09:23:10;2.70;99.90
13572;DHT22;6857;53.484;10.216;2024-01-15T09:25:35;2.70;99.90
13572;DHT22;6857;53.484;10.216;2024-01-15T09:28:01;2.70;99.90
13572;DHT22;6857;53.484;10.216;2024-01-15T09:30:27;2.70;99.90
13572;DHT22;6857;53.484;10.216;2024-01-15T09:32:53;2.60;99.90
13572;DHT22;6857;53.484;10.216;2024-01-15T09:35:19;2.60;99.90
13572;DHT22;6857;53.484;10.216;2024-01-15T09:37:44;2.50;99.90
13572;DHT22;6857;53.484;10.216;2024-01-15T09:40:13;2.50;99.90
13572;DHT22;6857;53.484;10.216;2024-01-15T09:42:40;2.40;99.90
13572;DHT22;6857;53.484;10.216;2024-01-15T09:45:07;2.40;99.90
13572;DHT22;6857;53.484;10.216;2024-01-15T09:47:35;2.30;99.90
13572;DHT22;6857;53.484;10.216;2024-01-15T09:50:00;2.20;99.90
13572;DHT22;6857;53.484;10.216;2024-01-15T09:52:30;2.20;99.90
13572;DHT22;6857;53.484;10.216;2024-01-15T09:54:57;2.20;99.90
13572;DHT22;6857;53.484;10.216;2024-01-15T09:57:23;2.00;99.90
13572;DHT22;6857;53.484;10.216;2024-01-15T09:59:50;2.00;99.90
13572;DHT22;6857;53.484;10.216;2024-01-15T10:02:17;2.00;99.90
13572;DHT22;6857;53.484;10.216;2024-01-15T10:04:44;2.00;99.90
13572;DHT22;6857;53.484;10.216;2024-01-15T10:07:14;2.00;99.90
13572;DHT22;6857;53.484;10.216;2024-01-15T10:09:40;2.00;99.90
13572;DHT22;6857;53.484;10.216;2024-01-15T10:12:06;1.90;99.90
13572;DHT22;6857;53.484;10.216;2024-01-15T10:14:33;1.80;99.90
13572;DHT22;6857;53.484;10.216;2024-01-15T10:16:58;1.60;99.90
13572;DHT22;6857;53.484;10.216;2024-01-15T10:19:24;1.50;99.90
13572;DHT22;6857;53.484;10.216;2024-01-15T10:21:49;1.40;99.90
13572;DHT22;6857;53.484;10.216;2024-01-15T10:24:15;1.30;99.90
13572;DHT22;6857;53.484;10.216;2024-01-15T10:26:40;1.30;99.90
13572;DHT22;6857;53.484;10.216;2024-01-15T10:29:06;1.30;99.90
13572;DHT22;6857;53.484;10.216;2024-01-15T10:31:32;1.40;99.90
13572;DHT22;6857;53.484;10.216;2024-01-15T10:34:13;1.40;99.90
13572;DHT22;6857;53.484;10.216;2024-01-15T10:36:41;1.40;99.90
13572;DHT22;6857;53.484;10.216;2024-01-15T10:39:07;1.40;99.90
13572;DHT22;6857;53.484;10.216;2024-01-15T10:41:33;1.50;99.90
13572;DHT22;6857;53.484;10.216;2024-01-15T10:43:59;1.50;99.90
13572;DHT22;6857;53.484;10.216;2024-01-15T10:46:25;1.50;99.90
13572;DHT22;6857;53.484;10.216;2024-01-15T10:48:51;1.60;99.90
13572;DHT22;6857;53.484;10.216;2024-01-15T10:51:17;1.60;99.90
13572;DHT22;6857;53.484;10.216;2024-01-15T10:53:44;1.60;99.90
13572;DHT22;6857;53.484;10.216;2024-01-15T10:56:11;1.70;99.90
13572;DHT22;6857;53.484;10.216;2024-01-15T10:58:39;1.70;99.90
13572;DHT22;6857;53.484;10.216;2024-01-15T11:01:05;1.70;99.90
13572;DHT22;6857;53.484;10.216;2024-01-15T11:03:32;1.70;99.90
13572;DHT22;6857;53.484;10.216;2024-01-15T11:05:57;1.70;99.90
13572;DHT22;6857;53.484;10.216;2024-01-15T11:08:25;1.80;99.90
13572;DHT22;6857;53.484;10.216;2024-01-15T11:10:51;1.70;99.90
13572;DHT22;6857;53.484;10.216;2024-01-15T11:15:58;1.70;99.90
13572;DHT22;6857;53.484;10.216;2024-01-15T11:18:27;1.50;99.90
13572;DHT22;6857;53.484;10.216;2024-01-15T11:29:28;1.30;99.90
13572;DHT22;6857;53.484;10.216;2024-01-15T11:31:59;1.30;99.90
13572;DHT22;6857;53.484;10.216;2024-01-15T11:34:51;1.30;99.90
13572;DHT22;6857;53.484;10.216;2024-01-15T11:37:18;1.40;99.90
13572;DHT22;6857;53.484;10.216;2024-01-15T11:39:44;1.40;99.90
13572;DHT22;6857;53.484;10.216;2024-01-15T11:42:11;1.50;99.90
13572;DHT22;6857;53.484;10.216;2024-01-15T11:44:38;1.50;99.90
13572;DHT22;6857;53.484;10.216;2024-01-15T11:47:08;1.50;99.90
13572;DHT22;6857;53.484;10.216;2024-01-15T11:52:05;1.50;99.90
13572;DHT22;6857;53.484;10.216;2024-01-15T11:54:33;1.50;99.90
13572;DHT22;6857;53.484;10.216;2024-01-15T11:57:05;1.50;99.90
13572;DHT22;6857;53.484;10.216;2024-01-15T11:59:33;1.60;99.90
13572;DHT22;6857;53.484;10.216;2024-01-15T12:01:59;1.60;99.90
13572;DHT22;6857;53.484;10.216;2024-01-15T12:04:24;1.60;99.90
13572;DHT22;6857;53.484;10.216;2024-01-15T12:06:50;1.60;99.90
13572;DHT22;6857;53.484;10.216;2024-01-15T12:09:19;1.60;99.90
13572;DHT22;6857;53.484;10.216;2024-01-15T12:11:51;1.60;99.90
13572;DHT22;6857;53.484;10.216;2024-01-15T12:14:21;1.70;99.90
13572;DHT22;6857;53.484;10.216;2024-01-15T12:16:46;1.60;99.90
13572;DHT22;6857;53.484;10.216;2024-01-15T12:19:14;1.60;99.90
13572;DHT22;6857;53.484;10.216;2024-01-15T12:21:39;1.60;99.90
13572;DHT22;6857;53.484;10.216;2024-01-15T12:24:07;1.60;99.90
13572;DHT22;6857;53.484;10.216;2024-01-15T12:26:33;1.60;99.90
13572;DHT22;6857;53.484;10.216;2024-01-15T12:29:02;1.60;99.90
13572;DHT22;6857;53.484;10.216;2024-01-15T12:31:28;1.50;99.90
13572;DHT22;6857;53.484;10.216;2024-01-15T12:33:56;1.50;99.90
13572;DHT22;6857;53.484;10.216;2024-01-15T12:36:21;1.60;99.90
13572;DHT22;6857;53.484;10.216;2024-01-15T12:38:47;1.50;99.90
13572;DHT22;6857;53.484;10.216;2024-01-15T12:41:12;1.60;99.90
13572;DHT22;6857;53.484;10.216;2024-01-15T12:43:38;1.50;99.90
13572;DHT22;6857;53.484;10.216;2024-01-15T12:46:04;1.60;99.90
13572;DHT22;6857;53.484;10.216;2024-01-15T12:48:29;1.60;99.90
13572;DHT22;6857;53.484;10.216;2024-01-15T12:50:55;1.50;99.90
13572;DHT22;6857;53.484;10.216;2024-01-15T12:53:21;1.50;99.90
13572;DHT22;6857;53.484;10.216;2024-01-15T12:55:47;1.60;99.90
13572;DHT22;6857;53.484;10.216;2024-01-15T12:58:12;1.50;99.90
13572;DHT22;6857;53.484;10.216;2024-01-15T13:00:39;1.50;99.90
13572;DHT22;6857;53.484;10.216;2024-01-15T13:03:05;1.60;99.90
13572;DHT22;6857;53.484;10.216;2024-01-15T13:05:31;1.60;99.90
13572;DHT22;6857;53.484;10.216;2024-01-15T13:07:57;1.60;99.90
13572;DHT22;6857;53.484;10.216;2024-01-15T13:10:24;1.70;99.90
13572;DHT22;6857;53.484;10.216;2024-01-15T13:12:50;1.60;99.90
13572;DHT22;6857;53.484;10.216;2024-01-15T13:15:16;1.60;99.90
13572;DHT22;6857;53.484;10.216;2024-01-15T13:17:42;1.60;99.90
13572;DHT22;6857;53.484;10.216;2024-01-15T13:20:08;1.60;99.90
13572;DHT22;6857;53.484;10.216;2024-01-15T13:22:34;1.60;99.90
13572;DHT22;6857;53.484;10.216;2024-01-15T13:24:59;1.70;99.90
13572;DHT22;6857;53.484;10.216;2024-01-15T13:27:25;1.60;99.90
13572;DHT22;6857;53.484;10.216;2024-01-15T13:29:51;1.60;99.90
13572;DHT22;6857;53.484;10.216;2024-01-15T13:32:28;1.60;99.90
13572;DHT22;6857;53.484;10.216;2024-01-15T13:34:55;1.60;99.90
13572;DHT22;6857;53.484;10.216;2024-01-15T13:37:21;1.70;99.90
13572;DHT22;6857;53.484;10.216;2024-01-15T13:39:46;1.70;99.90
13572;DHT22;6857;53.484;10.216;2024-01-15T13:42:12;1.70;99.90
13572;DHT22;6857;53.484;10.216;2024-01-15T13:44:38;1.80;99.90
13572;DHT22;6857;53.484;10.216;2024-01-15T13:47:04;1.70;99.90
13572;DHT22;6857;53.484;10.216;2024-01-15T13:49:30;1.80;99.90
13572;DHT22;6857;53.484;10.216;2024-01-15T13:51:56;1.80;99.90
13572;DHT22;6857;53.484;10.216;2024-01-15T13:54:22;1.80;99.90
13572;DHT22;6857;53.484;10.216;2024-01-15T13:56:48;1.80;99.90
13572;DHT22;6857;53.484;10.216;2024-01-15T13:59:13;1.80;99.90
13572;DHT22;6857;53.484;10.216;2024-01-15T14:01:39;1.70;99.90
13572;DHT22;6857;53.484;10.216;2024-01-15T14:04:04;1.70;99.90
13572;DHT22;6857;53.484;10.216;2024-01-15T14:06:30;1.70;99.90
13572;DHT22;6857;53.484;10.216;2024-01-15T14:08:56;1.70;99.90
13572;DHT22;6857;53.484;10.216;2024-01-15T14:11:21;1.70;99.90
13572;DHT22;6857;53.484;10.216;2024-01-15T14:13:48;1.70;99.90
13572;DHT22;6857;53.484;10.216;2024-01-15T14:16:13;1.70;99.90
13572;DHT22;6857;53.484;10.216;2024-01-15T14:18:39;1.70;99.90
13572;DHT22;6857;53.484;10.216;2024-01-15T14:21:04;1.60;99.90
13572;DHT22;6857;53.484;10.216;2024-01-15T14:23:30;1.60;99.90
13572;DHT22;6857;53.484;10.216;2024-01-15T14:25:56;1.60;99.90
13572;DHT22;6857;53.484;10.216;2024-01-15T14:28:22;1.60;99.90
13572;DHT22;6857;53.484;10.216;2024-01-15T14:30:48;1.80;99.90
13572;DHT22;6857;53.484;10.216;2024-01-15T14:33:14;1.60;99.90
13572;DHT22;6857;53.484;10.216;2024-01-15T14:35:39;1.70;99.90
13572;DHT22;6857;53.484;10.216;2024-01-15T14:38:05;1.70;99.90
13572;DHT22;6857;53.484;10.216;2024-01-15T14:40:31;1.70;99.90
13572;DHT22;6857;53.484;10.216;2024-01-15T14:42:56;1.70;99.90
13572;DHT22;6857;53.484;10.216;2024-01-15T14:45:22;1.70;99.90
13572;DHT22;6857;53.484;10.216;2024-01-15T14:47:48;1.70;99.90
13572;DHT22;6857;53.484;10.216;2024-01-15T14:50:14;1.60;99.90
13572;DHT22;6857;53.484;10.216;2024-01-15T14:52:40;1.60;99.90
13572;DHT22;6857;53.484;10.216;2024-01-15T14:55:07;1.60;99.90
13572;DHT22;6857;53.484;10.216;2024-01-15T14:57:34;1.50;99.90
13572;DHT22;6857;53.484;10.216;2024-01-15T14:59:59;1.50;99.90
13572;DHT22;6857;53.484;10.216;2024-01-15T15:02:25;1.50;99.90
13572;DHT22;6857;53.484;10.216;2024-01-15T15:04:54;1.50;99.90
13572;DHT22;6857;53.484;10.216;2024-01-15T15:07:21;1.50;99.90
13572;DHT22;6857;53.484;10.216;2024-01-15T15:09:47;1.50;99.90
13572;DHT22;6857;53.484;10.216;2024-01-15T15:12:16;1.50;99.90
13572;DHT22;6857;53.484;10.216;2024-01-15T15:14:42;1.40;99.90
13572;DHT22;6857;53.484;10.216;2024-01-15T15:17:08;1.40;99.90
13572;DHT22;6857;53.484;10.216;2024-01-15T15:19:35;1.40;99.90
13572;DHT22;6857;53.484;10.216;2024-01-15T15:22:01;1.40;99.90
13572;DHT22;6857;53.484;10.216;2024-01-15T15:24:27;1.40;99.90
13572;DHT22;6857;53.484;10.216;2024-01-15T15:26:52;1.40;99.90
13572;DHT22;6857;53.484;10.216;2024-01-15T15:29:18;1.40;99.90
13572;DHT22;6857;53.484;10.216;2024-01-15T15:31:44;1.40;99.90
13572;DHT22;6857;53.484;10.216;2024-01-15T15:34:10;1.30;99.90
13572;DHT22;6857;53.484;10.216;2024-01-15T15:36:35;1.30;99.90
13572;DHT22;6857;53.484;10.216;2024-01-15T15:39:01;1.30;99.90
13572;DHT22;6857;53.484;10.216;2024-01-15T15:41:27;1.30;99.90
13572;DHT22;6857;53.484;10.216;2024-01-15T15:43:53;1.30;99.90
13572;DHT22;6857;53.484;10.216;2024-01-15T15:46:19;1.30;99.90
13572;DHT22;6857;53.484;10.216;2024-01-15T15:48:45;1.30;99.90
13572;DHT22;6857;53.484;10.216;2024-01-15T15:51:10;1.30;99.90
13572;DHT22;6857;53.484;10.216;2024-01-15T15:53:36;1.20;99.90